createdAt,value
2022-08-05T04:17:12.134Z,20.73
2022-08-05T04:19:46.963Z,20.39
2022-08-05T04:22:21.394Z,20.70
2022-08-05T04:24:52.545Z,20.99
2022-08-05T04:27:32.972Z,20.11
2022-08-05T04:30:08.674Z,20.34
2022-08-05T04:32:39.023Z,20.90
2022-08-05T04:35:06.883Z,20.79
2022-08-05T04:38:02.244Z,21.01
2022-08-05T04:40:35.370Z,20.99
2022-08-05T04:43:02.159Z,20.76
2022-08-05T04:45:48.336Z,20.65
2022-08-05T04:48:27.338Z,20.82
2022-08-05T04:51:02.975Z,20.90
2022-08-05T04:53:38.866Z,20.87
2022-08-05T04:56:33.408Z,20.80
2022-08-05T04:59:00.273Z,20.64
2022-08-05T05:02:35.604Z,20.48
2022-08-05T05:04:33.554Z,20.62
2022-08-05T05:07:00.213Z,20.38
2022-08-05T05:09:28.920Z,20.45
2022-08-05T05:11:59.048Z,20.28
2022-08-05T05:14:31.926Z,20.25
2022-08-05T05:17:03.529Z,20.45
2022-08-05T05:19:37.264Z,20.33
2022-08-05T05:23:07.999Z,20.14
2022-08-05T05:26:32.932Z,20.62
2022-08-05T05:28:59.892Z,20.68
2022-08-05T05:35:24.246Z,20.60
2022-08-05T05:38:02.968Z,20.58
2022-08-05T05:40:32.047Z,20.62
2022-08-05T05:42:59.881Z,20.74
2022-08-05T05:45:29.349Z,20.57
2022-08-05T05:48:05.308Z,20.99
2022-08-05T05:50:41.299Z,21.09
2022-08-05T05:53:21.124Z,20.72
2022-08-05T05:55:51.839Z,20.31
2022-08-05T05:58:54.222Z,20.83
2022-08-05T06:01:23.446Z,20.64
2022-08-05T06:04:01.199Z,20.60
2022-08-05T06:06:31.019Z,20.60
2022-08-05T06:09:00.745Z,20.90
2022-08-05T06:11:29.000Z,20.67
2022-08-05T06:13:57.061Z,20.99
2022-08-05T06:16:28.927Z,20.75
2022-08-05T06:19:00.286Z,21.08
2022-08-05T06:21:41.751Z,21.04
2022-08-05T06:24:16.493Z,21.08
2022-08-05T06:26:51.370Z,21.33
2022-08-05T06:29:24.979Z,21.66
2022-08-05T06:32:21.032Z,21.98
2022-08-05T06:34:53.550Z,22.08
2022-08-05T06:37:56.162Z,22.34
2022-08-05T06:40:10.484Z,22.26
2022-08-05T06:42:39.899Z,22.32
2022-08-05T06:45:09.047Z,21.66
2022-08-05T06:48:36.010Z,22.22
2022-08-05T06:50:23.620Z,22.39
2022-08-05T06:53:03.560Z,22.53
2022-08-05T06:55:38.386Z,22.75
2022-08-05T06:58:20.008Z,22.29
2022-08-05T07:00:58.711Z,21.91
2022-08-05T07:03:32.319Z,22.32
2022-08-05T07:06:15.031Z,22.24
2022-08-05T07:08:47.874Z,21.65
2022-08-05T07:11:22.387Z,21.66
2022-08-05T07:14:20.689Z,21.40
2022-08-05T07:17:59.045Z,21.06
2022-08-05T07:22:37.487Z,21.04
2022-08-05T07:25:24.050Z,20.90
2022-08-05T07:28:11.679Z,21.00
2022-08-05T07:30:50.396Z,21.09
2022-08-05T07:33:36.697Z,21.20
2022-08-05T07:36:20.856Z,21.50
2022-08-05T07:38:48.906Z,21.33
2022-08-05T07:42:09.649Z,21.02
2022-08-05T07:44:33.715Z,21.04
2022-08-05T07:47:01.385Z,21.19
2022-08-05T07:49:34.437Z,21.54
2022-08-05T07:52:10.175Z,21.12
2022-08-05T07:54:38.683Z,21.58
2022-08-05T07:57:58.945Z,21.62
2022-08-05T08:00:29.403Z,21.41
2022-08-05T08:03:13.662Z,21.86
2022-08-05T08:05:49.334Z,21.96
2022-08-05T08:08:19.999Z,22.11
2022-08-05T08:10:49.018Z,21.80
2022-08-05T08:13:22.115Z,21.85
2022-08-05T08:16:35.317Z,21.49
2022-08-05T08:18:42.357Z,22.32
2022-08-05T08:21:47.956Z,22.01
2022-08-05T08:24:14.808Z,22.21
2022-08-05T08:26:41.439Z,22.94
2022-08-05T08:29:29.367Z,22.94
2022-08-05T08:31:55.503Z,22.93
2022-08-05T08:34:30.736Z,22.93
2022-08-05T08:37:56.440Z,22.50
2022-08-05T08:45:16.431Z,22.57
2022-08-05T08:48:06.055Z,22.59
2022-08-05T08:52:03.268Z,23.20
2022-08-05T08:55:14.433Z,23.28
2022-08-05T08:57:58.385Z,23.36
2022-08-05T09:00:51.504Z,23.43
2022-08-05T09:07:57.052Z,23.31
2022-08-05T09:10:27.870Z,22.69
2022-08-05T09:12:57.026Z,22.99
2022-08-05T09:15:31.139Z,22.67
2022-08-05T09:17:57.793Z,23.26
2022-08-05T09:20:37.403Z,23.57
2022-08-05T09:23:18.794Z,24.05
2022-08-05T09:26:02.078Z,23.88
2022-08-05T09:29:47.810Z,24.02
2022-08-05T09:33:22.086Z,24.48
2022-08-05T09:36:55.186Z,23.45
2022-08-05T09:39:39.495Z,24.30
2022-08-05T09:42:17.313Z,24.06
2022-08-05T09:44:56.135Z,23.78
2022-08-05T09:47:25.538Z,23.86
2022-08-05T09:50:01.567Z,24.08
2022-08-05T09:52:44.872Z,24.78
2022-08-05T09:55:57.168Z,24.26
2022-08-05T09:58:15.801Z,24.42
2022-08-05T10:00:52.396Z,24.21
2022-08-05T10:03:18.956Z,24.28
2022-08-05T10:05:47.090Z,23.93
2022-08-05T10:08:37.415Z,23.69
2022-08-05T10:11:15.759Z,24.36
2022-08-05T10:13:47.175Z,24.49
2022-08-05T10:16:42.047Z,23.97
2022-08-05T10:19:23.715Z,24.36
2022-08-05T10:21:58.965Z,24.27
2022-08-05T10:24:28.616Z,24.63
2022-08-05T10:26:56.718Z,24.31
2022-08-05T10:30:41.444Z,25.00
2022-08-05T10:32:52.605Z,24.37
2022-08-05T10:35:04.324Z,24.95
2022-08-05T10:37:40.061Z,24.72
2022-08-05T10:40:20.000Z,24.36
2022-08-05T10:43:01.209Z,24.46
2022-08-05T10:45:42.168Z,24.63
2022-08-05T10:48:33.347Z,24.45
2022-08-05T10:51:21.991Z,24.77
2022-08-05T10:54:23.079Z,24.33
2022-08-05T10:56:55.978Z,24.52
2022-08-05T11:00:03.275Z,24.66
2022-08-05T11:02:38.157Z,24.35
2022-08-05T11:05:09.498Z,24.36
2022-08-05T11:08:02.669Z,24.81
2022-08-05T11:10:33.607Z,24.48
2022-08-05T11:13:01.452Z,24.66
2022-08-05T11:16:00.642Z,24.88
2022-08-05T11:18:32.433Z,24.80
2022-08-05T11:21:02.909Z,24.24
2022-08-05T11:24:30.046Z,25.09
2022-08-05T11:27:29.025Z,25.36
2022-08-05T11:30:15.602Z,25.02
2022-08-05T11:32:42.106Z,25.22
2022-08-05T11:36:07.486Z,25.38
2022-08-05T11:38:45.989Z,25.84
2022-08-05T11:41:54.842Z,25.67
2022-08-05T11:44:11.488Z,27.27
2022-08-05T11:47:09.656Z,27.30
2022-08-05T11:49:38.910Z,27.32
2022-08-05T11:52:11.962Z,28.18
2022-08-05T11:54:40.559Z,28.36
2022-08-05T11:57:24.535Z,29.43
2022-08-05T11:59:52.292Z,28.35
2022-08-05T12:02:31.296Z,28.45
2022-08-05T12:05:06.900Z,28.57
2022-08-05T12:08:03.732Z,28.99
2022-08-05T12:10:43.244Z,26.99
2022-08-05T12:13:27.855Z,26.67
2022-08-05T12:16:19.075Z,25.96
2022-08-05T12:18:53.024Z,26.33
2022-08-05T12:21:23.943Z,26.79
2022-08-05T12:24:03.329Z,27.54
2022-08-05T12:26:54.369Z,27.99
2022-08-05T12:29:26.034Z,28.39
2022-08-05T12:32:01.826Z,28.21
2022-08-05T12:34:32.551Z,28.49
2022-08-05T12:37:07.625Z,28.34
2022-08-05T12:39:38.672Z,28.63
2022-08-05T12:42:18.137Z,27.66
2022-08-05T12:44:47.561Z,27.57
2022-08-05T12:47:30.730Z,28.47
2022-08-05T12:50:04.197Z,28.94
2022-08-05T12:52:39.150Z,29.17
2022-08-05T12:55:25.643Z,29.27
2022-08-05T12:58:48.634Z,28.94
2022-08-05T13:02:03.098Z,27.96
2022-08-05T13:03:41.475Z,28.44
2022-08-05T13:06:15.939Z,28.67
2022-08-05T13:08:50.836Z,28.44
2022-08-05T13:11:25.351Z,27.05
2022-08-05T13:14:36.072Z,26.94
2022-08-05T13:17:10.847Z,26.23
2022-08-05T13:19:40.402Z,25.69
2022-08-05T13:25:52.033Z,26.12
2022-08-05T13:28:29.737Z,26.42
2022-08-05T13:30:59.548Z,26.78
2022-08-05T13:34:23.364Z,26.09
2022-08-05T13:36:53.997Z,25.30
2022-08-05T13:40:14.394Z,24.63
2022-08-05T13:42:14.338Z,24.22
2022-08-05T13:44:45.557Z,24.73
2022-08-05T13:47:35.783Z,23.56
2022-08-05T13:50:04.402Z,23.65
2022-08-05T13:52:39.779Z,23.36
2022-08-05T13:55:09.838Z,23.20
2022-08-05T13:57:51.530Z,22.61
2022-08-05T14:00:30.792Z,23.04
2022-08-05T14:03:01.071Z,23.58
2022-08-05T14:06:04.619Z,23.42
2022-08-05T14:08:20.968Z,24.54
2022-08-05T14:11:03.078Z,24.18
2022-08-05T14:13:48.292Z,23.48
2022-08-05T14:16:16.942Z,23.80
2022-08-05T14:18:45.768Z,24.34
2022-08-05T14:22:08.321Z,24.47
2022-08-05T14:24:04.274Z,24.62
2022-08-05T14:26:36.812Z,24.98
2022-08-05T14:29:05.636Z,24.39
2022-08-05T14:32:03.778Z,25.07
2022-08-05T14:34:35.862Z,24.28
2022-08-05T14:37:15.645Z,23.80
2022-08-05T14:39:50.294Z,24.01
2022-08-05T14:42:23.604Z,23.56
2022-08-05T14:44:51.946Z,23.26
2022-08-05T14:47:58.417Z,23.81
2022-08-05T14:50:14.197Z,23.24
2022-08-05T14:52:53.584Z,22.85
2022-08-05T14:55:24.576Z,23.25
2022-08-05T14:57:54.432Z,22.93
2022-08-05T15:00:27.884Z,22.73
2022-08-05T15:02:55.193Z,22.66
2022-08-05T15:05:21.900Z,22.83
2022-08-05T15:08:06.502Z,22.77
2022-08-05T15:10:41.472Z,22.45
2022-08-05T15:13:10.048Z,22.16
2022-08-05T15:15:54.268Z,22.36
2022-08-05T15:18:22.597Z,22.29
2022-08-05T15:20:49.707Z,22.31
2022-08-05T15:23:18.086Z,22.47
2022-08-05T15:25:52.072Z,22.54
2022-08-05T15:28:19.747Z,22.61
2022-08-05T15:30:53.683Z,22.58
2022-08-05T15:33:56.863Z,22.92
2022-08-05T15:36:16.851Z,22.80
2022-08-05T15:38:44.843Z,22.56
2022-08-05T15:41:22.822Z,22.49
2022-08-05T15:44:01.135Z,22.38
2022-08-05T15:46:30.808Z,22.15
2022-08-05T15:49:00.841Z,21.75
2022-08-05T15:52:03.895Z,21.97
2022-08-05T15:54:34.871Z,21.53
2022-08-05T15:57:01.918Z,21.99
2022-08-05T15:59:28.454Z,22.12
2022-08-05T16:01:55.802Z,22.14
2022-08-05T16:04:26.085Z,22.31
2022-08-05T16:06:54.288Z,22.57
2022-08-05T16:09:23.207Z,22.60
2022-08-05T16:11:53.206Z,23.01
2022-08-05T16:14:20.804Z,22.55
2022-08-05T16:16:49.322Z,22.55
2022-08-05T16:19:25.391Z,22.46
2022-08-05T16:22:03.613Z,22.29
2022-08-05T16:24:39.962Z,22.13
2022-08-05T16:27:09.313Z,22.25
2022-08-05T16:29:37.268Z,22.05
2022-08-05T16:32:09.679Z,21.89
2022-08-05T16:34:39.327Z,21.63
2022-08-05T16:38:02.929Z,21.59
2022-08-05T16:40:05.280Z,21.89
2022-08-05T16:42:34.703Z,21.99
2022-08-05T16:45:01.943Z,21.60
2022-08-05T16:47:36.133Z,21.68
2022-08-05T16:50:09.985Z,22.09
2022-08-05T16:52:37.291Z,21.77
2022-08-05T16:55:04.807Z,21.79
2022-08-05T16:57:50.470Z,21.95
2022-08-05T17:00:26.228Z,21.92
2022-08-05T17:03:02.928Z,21.78
2022-08-05T17:05:31.142Z,21.94
2022-08-05T17:07:57.986Z,21.64
2022-08-05T17:10:26.409Z,22.02
2022-08-05T17:12:57.454Z,22.07
2022-08-05T17:15:24.369Z,22.19
2022-08-05T17:17:56.179Z,22.21
2022-08-05T17:20:25.048Z,22.28
2022-08-05T17:22:55.419Z,21.87
2022-08-05T17:25:40.214Z,22.19
2022-08-05T17:28:09.137Z,22.37
2022-08-05T17:30:42.479Z,22.38
2022-08-05T17:33:17.474Z,22.53
2022-08-05T17:36:07.374Z,22.41
2022-08-05T17:38:33.260Z,22.82
2022-08-05T17:40:59.944Z,22.74
2022-08-05T17:43:50.370Z,22.51
2022-08-05T17:46:13.005Z,22.37
2022-08-05T17:48:40.188Z,22.54
2022-08-05T17:51:09.775Z,22.65
2022-08-05T17:53:36.411Z,22.66
2022-08-05T17:56:04.624Z,22.47
2022-08-05T17:58:32.630Z,22.69
2022-08-05T18:00:59.712Z,22.60
2022-08-05T18:03:59.331Z,22.82
2022-08-05T18:06:15.221Z,22.54
2022-08-05T18:08:45.778Z,22.20
2022-08-05T18:11:24.199Z,22.64
2022-08-05T18:14:04.226Z,22.41
2022-08-05T18:18:00.313Z,22.54
2022-08-05T18:20:15.185Z,22.52
2022-08-05T18:22:54.246Z,22.75
2022-08-05T18:25:22.149Z,22.56
2022-08-05T18:27:52.312Z,22.67
2022-08-05T18:30:19.845Z,22.80
2022-08-05T18:32:53.169Z,22.87
2022-08-05T18:35:20.474Z,22.44
2022-08-05T18:38:09.463Z,22.20
2022-08-05T18:41:56.227Z,22.21
2022-08-05T18:43:23.100Z,22.33
2022-08-05T18:45:56.206Z,22.20
2022-08-05T18:48:30.473Z,22.11
2022-08-05T18:52:04.149Z,22.01
2022-08-05T18:54:05.598Z,21.94
2022-08-05T18:56:33.213Z,21.89
2022-08-05T18:59:41.978Z,21.68
2022-08-05T19:01:58.537Z,21.69
2022-08-05T19:04:25.753Z,21.22
2022-08-05T19:06:53.742Z,21.34
2022-08-05T19:09:21.326Z,21.32
2022-08-05T19:12:01.286Z,21.08
2022-08-05T19:14:59.328Z,21.17
2022-08-05T19:17:16.772Z,21.16
2022-08-05T19:19:46.907Z,20.91
2022-08-05T19:22:17.532Z,21.08
2022-08-05T19:24:54.185Z,20.95
2022-08-05T19:27:43.085Z,20.93
2022-08-05T19:30:10.340Z,20.78
2022-08-05T19:32:37.534Z,20.82
2022-08-05T19:35:06.419Z,20.70
2022-08-05T19:37:47.332Z,20.64
2022-08-05T19:40:24.349Z,20.60
2022-08-05T19:43:04.457Z,20.58
2022-08-05T19:45:36.420Z,20.55
2022-08-05T19:48:03.734Z,20.42
2022-08-05T19:50:32.173Z,20.48
2022-08-05T19:53:09.651Z,20.34
2022-08-05T19:56:13.619Z,20.35
2022-08-05T19:58:29.088Z,20.24
2022-08-05T20:00:56.318Z,20.02
2022-08-05T20:03:24.470Z,20.14
2022-08-05T20:05:56.799Z,19.94
2022-08-05T20:08:24.811Z,20.10
2022-08-05T20:10:51.831Z,19.83
2022-08-05T20:13:54.759Z,19.89
2022-08-05T20:16:09.873Z,19.39
2022-08-05T20:18:37.106Z,19.67
2022-08-05T20:21:06.670Z,19.53
2022-08-05T20:23:39.551Z,19.32
2022-08-05T20:26:17.426Z,19.38
2022-08-05T20:28:50.118Z,19.38
2022-08-05T20:31:52.302Z,19.52
2022-08-05T20:34:20.324Z,19.33
2022-08-05T20:36:46.888Z,19.20
2022-08-05T20:39:39.277Z,19.31
2022-08-05T20:42:06.828Z,19.03
2022-08-05T20:44:38.246Z,19.18
2022-08-05T20:47:06.623Z,19.12
2022-08-05T20:49:39.372Z,19.14
2022-08-05T20:52:07.248Z,18.96
2022-08-05T20:54:43.329Z,19.02
2022-08-05T20:57:42.734Z,18.92
2022-08-05T21:00:41.546Z,18.86
2022-08-05T21:03:01.175Z,18.87
2022-08-05T21:05:38.361Z,18.69
2022-08-05T21:08:14.651Z,18.60
2022-08-05T21:10:49.000Z,18.63
2022-08-05T21:13:26.090Z,18.61
2022-08-05T21:16:13.641Z,18.44
2022-08-05T21:18:44.988Z,18.43
2022-08-05T21:21:11.999Z,18.25
2022-08-05T21:23:38.981Z,18.29
2022-08-05T21:26:08.088Z,18.17
2022-08-05T21:28:40.048Z,18.28
2022-08-05T21:31:14.348Z,18.03
2022-08-05T21:33:43.142Z,18.01
2022-08-05T21:36:14.430Z,18.18
2022-08-05T21:38:54.628Z,17.93
2022-08-05T21:41:21.423Z,18.00
2022-08-05T21:44:01.626Z,18.01
2022-08-05T21:46:31.037Z,17.98
2022-08-05T21:48:59.872Z,17.72
2022-08-05T21:52:22.155Z,17.80
2022-08-05T21:54:13.099Z,17.79
2022-08-05T21:56:44.477Z,17.60
2022-08-05T21:59:22.455Z,17.42
